createdAt,value
2023-02-09T00:00:34.253Z,102837.95
2023-02-09T00:02:39.729Z,102835.08
2023-02-09T00:04:45.327Z,102825.53
2023-02-09T00:06:50.886Z,102830.2
2023-02-09T00:08:56.167Z,102829.42
2023-02-09T00:11:01.359Z,102830.49
2023-02-09T00:13:06.861Z,102829.05
2023-02-09T00:15:12.237Z,102831.64
2023-02-09T00:17:17.643Z,102830.77
2023-02-09T00:19:22.954Z,102828.66
2023-02-09T00:21:28.942Z,102830.26
2023-02-09T00:23:34.572Z,102830.63
2023-02-09T00:25:39.870Z,102822.73
2023-02-09T00:27:45.323Z,102819.48
2023-02-09T00:29:50.805Z,102813.95
2023-02-09T00:31:56.458Z,102815.75
2023-02-09T00:34:01.794Z,102825.58
2023-02-09T00:36:07.035Z,102818.77
2023-02-09T00:38:12.533Z,102816.17
2023-02-09T00:40:17.758Z,102809.28
2023-02-09T00:42:23.155Z,102817.8
2023-02-09T00:44:28.809Z,102810.98
2023-02-09T00:46:34.291Z,102811.23
2023-02-09T00:48:39.831Z,102813.28
2023-02-09T00:50:46.312Z,102804.05
2023-02-09T00:52:52.278Z,102815.82
2023-02-09T00:54:57.687Z,102812.5
2023-02-09T00:57:03.043Z,102808.11
2023-02-09T00:59:09.191Z,102800.13
2023-02-09T01:01:14.618Z,102793.92
2023-02-09T01:03:20.086Z,102792.84
2023-02-09T01:05:25.775Z,102795.15
2023-02-09T01:07:31.257Z,102795.38
2023-02-09T01:09:36.595Z,102788.67
2023-02-09T01:11:42.017Z,102787.82
2023-02-09T01:13:48.622Z,102782.56
2023-02-09T01:15:54.071Z,102788.94
2023-02-09T01:17:59.219Z,102785.73
2023-02-09T01:20:05.110Z,102788.13
2023-02-09T01:22:10.336Z,102783.08
2023-02-09T01:24:15.712Z,102782.01
2023-02-09T01:26:21.086Z,102776.56
2023-02-09T01:28:26.481Z,102775.47
2023-02-09T01:30:32.123Z,102771.14
2023-02-09T01:32:37.763Z,102766.66
2023-02-09T01:34:43.605Z,102762.36
2023-02-09T01:36:49.258Z,102764.69
2023-02-09T01:38:54.515Z,102762.8
2023-02-09T01:41:00.583Z,102761.35
2023-02-09T01:43:06.812Z,102765.41
2023-02-09T01:45:12.380Z,102762.73
2023-02-09T01:47:17.621Z,102749.59
2023-02-09T01:49:23.071Z,102742.29
2023-02-09T01:51:28.280Z,102741.42
2023-02-09T01:53:33.586Z,102737.27
2023-02-09T01:55:39.400Z,102731.13
2023-02-09T01:57:44.961Z,102726.05
2023-02-09T01:59:50.092Z,102720
2023-02-09T02:01:55.598Z,102710.64
2023-02-09T02:04:01.048Z,102709.05
2023-02-09T02:06:06.482Z,102709.22
2023-02-09T02:08:11.916Z,102706.7
2023-02-09T02:10:17.466Z,102709.2
2023-02-09T02:12:24.016Z,102706
2023-02-09T02:14:29.567Z,102702.58
2023-02-09T02:16:35.055Z,102698.91
2023-02-09T02:18:40.308Z,102696.16
2023-02-09T02:20:46.766Z,102695.8
2023-02-09T02:22:52.699Z,102691.17
2023-02-09T02:24:58.388Z,102694.38
2023-02-09T02:27:04.495Z,102697.63
2023-02-09T02:29:09.952Z,102689.34
2023-02-09T02:31:15.445Z,102678.23
2023-02-09T02:33:21.951Z,102676.81
2023-02-09T02:35:27.393Z,102673.13
2023-02-09T02:37:32.653Z,102667.19
2023-02-09T02:39:38.278Z,102665.84
2023-02-09T02:41:44.073Z,102665.14
2023-02-09T02:43:49.414Z,102667.64
2023-02-09T02:45:54.576Z,102663.86
2023-02-09T02:48:00.174Z,102656.11
2023-02-09T02:50:05.503Z,102653.6
2023-02-09T02:52:10.883Z,102648.16
2023-02-09T02:54:16.420Z,102645.38
2023-02-09T02:56:21.796Z,102650.02
2023-02-09T02:58:27.136Z,102652.61
2023-02-09T03:00:32.130Z,102650.67
2023-02-09T03:02:37.475Z,102642.83
2023-02-09T03:04:42.838Z,102641.7
2023-02-09T03:06:48.280Z,102631.81
2023-02-09T03:08:54.124Z,102628.09
2023-02-09T03:10:59.803Z,102622.38
2023-02-09T03:13:05.277Z,102621.58
2023-02-09T03:15:10.345Z,102625.94
2023-02-09T03:17:15.891Z,102628.63
2023-02-09T03:19:21.133Z,102624.91
2023-02-09T03:21:26.849Z,102625.84
2023-02-09T03:23:32.310Z,102622.08
2023-02-09T03:25:37.630Z,102618.19
2023-02-09T03:27:43.376Z,102617.78
2023-02-09T03:29:48.627Z,102611.73
2023-02-09T03:31:53.841Z,102611.25
2023-02-09T03:33:59.971Z,102608.53
2023-02-09T03:36:05.792Z,102605.86
2023-02-09T03:38:12.062Z,102607.3
2023-02-09T03:40:18.948Z,102603.02
2023-02-09T03:42:24.591Z,102599.31
2023-02-09T03:44:29.848Z,102599
2023-02-09T03:46:35.193Z,102593.97
2023-02-09T03:48:41.010Z,102598.52
2023-02-09T03:50:47.287Z,102594.72
2023-02-09T03:52:52.855Z,102592.28
2023-02-09T03:54:58.658Z,102596.63
2023-02-09T03:57:03.924Z,102591.3
2023-02-09T03:59:09.282Z,102590.56
2023-02-09T04:01:14.522Z,102589.72
2023-02-09T04:03:20.141Z,102586.53
2023-02-09T04:05:25.646Z,102589.36
2023-02-09T04:07:31.460Z,102592.05
2023-02-09T04:09:37.150Z,102593.95
2023-02-09T04:11:42.490Z,102593.96
2023-02-09T04:13:47.803Z,102600.66
2023-02-09T04:15:53.137Z,102601.19
2023-02-09T04:17:58.833Z,102599.8
2023-02-09T04:20:04.179Z,102603.72
2023-02-09T04:22:09.465Z,102606.25
2023-02-09T04:24:14.717Z,102600.78
2023-02-09T04:26:20.132Z,102592.92
2023-02-09T04:28:25.856Z,102592.42
2023-02-09T04:30:31.484Z,102592.13
2023-02-09T04:32:37.139Z,102594.08
2023-02-09T04:34:42.527Z,102594.05
2023-02-09T04:36:48.065Z,102591.89
2023-02-09T04:38:53.276Z,102590.06
2023-02-09T04:40:58.911Z,102587.13
2023-02-09T04:43:04.425Z,102584.73
2023-02-09T04:45:09.511Z,102588.2
2023-02-09T04:47:15.487Z,102587.7
2023-02-09T04:49:21.060Z,102593.36
2023-02-09T04:51:26.585Z,102593.27
2023-02-09T04:53:31.882Z,102591.72
2023-02-09T04:55:37.247Z,102592.66
2023-02-09T04:57:42.645Z,102598.61
2023-02-09T04:59:48.107Z,102596.33
2023-02-09T05:01:53.618Z,102589.92
2023-02-09T05:03:59.232Z,102587.73
2023-02-09T05:06:05.013Z,102590.34
2023-02-09T05:08:10.123Z,102589.66
2023-02-09T05:10:15.843Z,102582.2
2023-02-09T05:12:21.483Z,102582.41
2023-02-09T05:14:26.624Z,102580.83
2023-02-09T05:16:32.233Z,102586.23
2023-02-09T05:18:38.248Z,102585.81
2023-02-09T05:20:44.096Z,102580.78
2023-02-09T05:22:51.527Z,102579.54
2023-02-09T05:24:56.956Z,102578.8
2023-02-09T05:27:02.343Z,102576.48
2023-02-09T05:29:07.352Z,102573.58
2023-02-09T05:31:12.844Z,102573.63
2023-02-09T05:33:18.975Z,102574.73
2023-02-09T05:35:24.280Z,102574.06
2023-02-09T05:37:30.033Z,102570.8
2023-02-09T05:39:35.276Z,102570.26
2023-02-09T05:41:40.599Z,102576
2023-02-09T05:43:45.885Z,102577.98
2023-02-09T05:45:51.290Z,102573.42
2023-02-09T05:47:56.627Z,102574.91
2023-02-09T05:50:01.986Z,102573.38
2023-02-09T05:52:07.490Z,102573.77
2023-02-09T05:54:12.839Z,102568.64
2023-02-09T05:56:18.167Z,102566.44
2023-02-09T05:58:23.324Z,102570.27
2023-02-09T06:00:28.714Z,102573.11
2023-02-09T06:02:34.613Z,102564.53
2023-02-09T06:04:40.279Z,102567.92
2023-02-09T06:06:45.466Z,102566.59
2023-02-09T06:08:51.060Z,102566.52
2023-02-09T06:10:56.982Z,102562.97
2023-02-09T06:13:02.670Z,102564.5
2023-02-09T06:15:08.124Z,102561.92
2023-02-09T06:17:13.563Z,102563.95
2023-02-09T06:19:19.195Z,102568.8
2023-02-09T06:21:24.586Z,102567.55
2023-02-09T06:23:29.897Z,102564.45
2023-02-09T06:25:38.404Z,102565.58
2023-02-09T06:27:44.474Z,102564.3
2023-02-09T06:29:49.988Z,102570.56
2023-02-09T06:31:56.324Z,102570.83
2023-02-09T06:34:02.148Z,102567.2
2023-02-09T06:36:07.495Z,102572.22
2023-02-09T06:38:13.484Z,102574.25
2023-02-09T06:40:19.083Z,102574.08
2023-02-09T06:42:24.585Z,102576.48
2023-02-09T06:44:32.815Z,102579.82
2023-02-09T06:46:38.470Z,102583.28
2023-02-09T06:48:44.293Z,102579.84
2023-02-09T06:50:50.864Z,102584.34
2023-02-09T06:52:57.023Z,102574.83
2023-02-09T06:55:02.676Z,102573.62
2023-02-09T06:57:07.960Z,102571.2
2023-02-09T06:59:13.456Z,102567.13
2023-02-09T07:01:19.645Z,102563.01
2023-02-09T07:03:25.177Z,102563.13
2023-02-09T07:05:30.593Z,102554.72
2023-02-09T07:07:36.074Z,102556.5
2023-02-09T07:09:41.204Z,102559.45
2023-02-09T07:11:46.363Z,102556.89
2023-02-09T07:13:52.248Z,102555.3
2023-02-09T07:15:57.923Z,102557.14
2023-02-09T07:18:03.501Z,102555.7
2023-02-09T07:20:09.020Z,102554.06
2023-02-09T07:22:14.529Z,102554.33
2023-02-09T07:24:19.983Z,102550.98
2023-02-09T07:26:25.383Z,102548.07
2023-02-09T07:28:31.345Z,102546.63
2023-02-09T07:30:37.746Z,102547.55
2023-02-09T07:32:43.583Z,102546.44
2023-02-09T07:34:48.968Z,102546.67
2023-02-09T07:36:54.940Z,102546.61
2023-02-09T07:39:01.668Z,102544.11
2023-02-09T07:41:07.589Z,102552
2023-02-09T07:43:12.864Z,102550.92
2023-02-09T07:45:18.338Z,102548.68
2023-02-09T07:47:23.833Z,102551.09
2023-02-09T07:49:29.758Z,102549.46
2023-02-09T07:51:35.640Z,102551.84
2023-02-09T07:53:41.260Z,102548.28
2023-02-09T07:55:47.488Z,102553.39
2023-02-09T07:57:53.302Z,102546.65
2023-02-09T08:00:01.947Z,102548.09
2023-02-09T08:02:07.596Z,102547.13
2023-02-09T08:04:13.719Z,102545.78
2023-02-09T08:06:21.812Z,102544.69
2023-02-09T08:08:45.889Z,102542.72
2023-02-09T08:10:51.948Z,102539.27
2023-02-09T08:12:57.575Z,102538.25
2023-02-09T08:15:02.971Z,102544.67
2023-02-09T08:17:08.966Z,102542.53
2023-02-09T08:19:14.365Z,102538.55
2023-02-09T08:21:19.789Z,102531.13
2023-02-09T08:23:25.411Z,102530.78
2023-02-09T08:25:31.025Z,102529.99
2023-02-09T08:27:36.890Z,102526.34
2023-02-09T08:29:42.341Z,102520.17
2023-02-09T08:31:47.936Z,102515.65
2023-02-09T08:33:53.671Z,102517.54
2023-02-09T08:35:58.909Z,102514.45
2023-02-09T08:38:04.959Z,102516.56
2023-02-09T08:40:10.280Z,102519.17
2023-02-09T08:42:15.881Z,102511.2
2023-02-09T08:44:21.322Z,102515.1
2023-02-09T08:46:27.451Z,102505.84
2023-02-09T08:48:36.162Z,102506.53
2023-02-09T08:50:41.562Z,102507.78
2023-02-09T08:52:47.266Z,102506.19
2023-02-09T08:54:52.869Z,102510.58
2023-02-09T08:56:58.214Z,102512.16
2023-02-09T08:59:03.841Z,102514.02
2023-02-09T09:01:09.565Z,102518.36
2023-02-09T09:03:15.214Z,102513.56
2023-02-09T09:05:20.663Z,102512.33
2023-02-09T09:07:26.504Z,102511.5
2023-02-09T09:09:31.950Z,102512.27
2023-02-09T09:11:37.232Z,102507.17
2023-02-09T09:13:42.712Z,102506.88
2023-02-09T09:15:51.093Z,102500.24
2023-02-09T09:17:56.368Z,102492.73
2023-02-09T09:20:01.650Z,102487.96
2023-02-09T09:22:06.794Z,102479.2
2023-02-09T09:24:12.797Z,102479.94
2023-02-09T09:26:18.944Z,102482.51
2023-02-09T09:28:25.604Z,102483.28
2023-02-09T09:30:31.940Z,102484.45
2023-02-09T09:32:37.896Z,102479.45
2023-02-09T09:34:43.769Z,102482.28
2023-02-09T09:37:13.857Z,102483.78
2023-02-09T09:39:19.593Z,102484.16
2023-02-09T09:41:27.678Z,102478.16
2023-02-09T09:43:33.017Z,102469
2023-02-09T09:45:39.779Z,102461.45
2023-02-09T09:47:45.422Z,102455.38
2023-02-09T09:49:50.896Z,102456.56
2023-02-09T09:51:56.363Z,102454.2
2023-02-09T09:54:01.794Z,102449.57
2023-02-09T09:56:07.124Z,102442.17
2023-02-09T09:58:17.129Z,102438.11
2023-02-09T10:00:23.043Z,102436.59
2023-02-09T10:02:28.864Z,102438.42
2023-02-09T10:04:36.560Z,102439.77
2023-02-09T10:06:44.659Z,102432.27
2023-02-09T10:08:51.133Z,102426.92
2023-02-09T10:10:57.244Z,102414.52
2023-02-09T10:13:02.915Z,102417.16
2023-02-09T10:15:08.584Z,102409.81
2023-02-09T10:17:14.236Z,102409.23
2023-02-09T10:19:20.409Z,102402.11
2023-02-09T10:21:26.584Z,102393.02
2023-02-09T10:23:33.303Z,102389.91
2023-02-09T10:25:44.184Z,102390.55
2023-02-09T10:27:50.768Z,102391.67
2023-02-09T10:29:56.226Z,102388.05
2023-02-09T10:32:01.660Z,102382.53
2023-02-09T10:34:07.194Z,102381.96
2023-02-09T10:36:13.170Z,102387.05
2023-02-09T10:38:18.433Z,102376.02
2023-02-09T10:40:23.604Z,102373.17
2023-02-09T10:42:30.245Z,102370.77
2023-02-09T10:44:35.639Z,102365.16
2023-02-09T10:46:44.540Z,102361.88
2023-02-09T10:48:50.343Z,102365.92
2023-02-09T10:50:56.151Z,102359.8
2023-02-09T10:53:02.291Z,102354.81
2023-02-09T10:55:08.054Z,102345.77
2023-02-09T10:57:13.505Z,102337.22
2023-02-09T10:59:18.890Z,102331.81
2023-02-09T11:01:24.701Z,102328.52
2023-02-09T11:03:30.551Z,102313.73
2023-02-09T11:05:36.006Z,102322.25
2023-02-09T11:07:41.657Z,102321.27
2023-02-09T11:09:47.751Z,102316.4
2023-02-09T11:11:54.296Z,102314.91
2023-02-09T11:14:00.312Z,102316.77
2023-02-09T11:16:06.471Z,102310.6
2023-02-09T11:18:11.960Z,102308.89
2023-02-09T11:20:17.347Z,102307.39
2023-02-09T11:22:28.794Z,102300.31
2023-02-09T11:24:35.083Z,102288.77
2023-02-09T11:26:40.472Z,102283.41
2023-02-09T11:28:47.801Z,102279.56
2023-02-09T11:30:57.366Z,102279.3
2023-02-09T11:33:03.515Z,102269.29
2023-02-09T11:37:46.709Z,102258.51
2023-02-09T11:39:52.600Z,102251.47
2023-02-09T11:41:58.462Z,102248.89
2023-02-09T11:44:04.262Z,102243.63
2023-02-09T11:46:09.633Z,102243.14
2023-02-09T11:48:15.301Z,102242.65
2023-02-09T11:50:21.162Z,102235.44
2023-02-09T11:52:26.969Z,102226.62
2023-02-09T11:54:32.692Z,102223.44
2023-02-09T11:56:43.428Z,102229.66
2023-02-09T11:58:49.278Z,102236.88
2023-02-09T12:01:15.359Z,102225.2
2023-02-09T12:03:23.276Z,102216.46
2023-02-09T12:05:29.213Z,102214.8
2023-02-09T12:07:35.173Z,102214.16
2023-02-09T12:09:40.848Z,102218.58
2023-02-09T12:11:46.255Z,102214.77
2023-02-09T12:13:51.732Z,102217.69
2023-02-09T12:15:57.155Z,102211.7
2023-02-09T12:18:02.783Z,102207.37
2023-02-09T12:20:08.441Z,102209.63
2023-02-09T12:22:14.182Z,102209.26
2023-02-09T12:24:21.185Z,102204.92
2023-02-09T12:26:26.964Z,102202.84
2023-02-09T12:28:32.781Z,102202.95
2023-02-09T12:30:38.719Z,102191.09
2023-02-09T12:32:44.079Z,102190.17
2023-02-09T12:34:50.422Z,102184.31
2023-02-09T12:36:57.453Z,102182.16
2023-02-09T12:39:06.883Z,102172.57
2023-02-09T12:41:12.819Z,102174.14
2023-02-09T12:43:18.971Z,102171.55
2023-02-09T12:45:26.814Z,102163.13
2023-02-09T12:47:32.665Z,102165.34
2023-02-09T12:49:38.158Z,102156.19
2023-02-09T12:51:45.164Z,102159.48
2023-02-09T12:53:51.459Z,102147.64
2023-02-09T12:55:57.781Z,102151.7
2023-02-09T12:58:03.141Z,102154.2
2023-02-09T13:00:08.857Z,102147.36
2023-02-09T13:02:14.803Z,102139.17
2023-02-09T13:04:20.143Z,102141.33
2023-02-09T13:06:27.277Z,102146.16
2023-02-09T13:08:33.518Z,102148.98
2023-02-09T13:10:38.866Z,102141.36
2023-02-09T13:12:44.677Z,102143.05
2023-02-09T13:14:50.320Z,102142.77
2023-02-09T13:16:56.156Z,102145.58
2023-02-09T13:19:01.956Z,102141.7
2023-02-09T13:21:07.662Z,102140.39
2023-02-09T13:23:13.298Z,102142.5
2023-02-09T13:25:18.909Z,102130.85
2023-02-09T13:27:24.220Z,102128.33
2023-02-09T13:29:29.520Z,102122.41
2023-02-09T13:31:35.156Z,102116.36
2023-02-09T13:33:40.536Z,102119.31
2023-02-09T13:35:46.869Z,102114.73
2023-02-09T13:37:52.833Z,102115.97
2023-02-09T13:39:58.892Z,102107.11
2023-02-09T13:42:07.904Z,102103.09
2023-02-09T13:44:15.834Z,102107.44
2023-02-09T13:46:21.640Z,102097.7
2023-02-09T13:48:27.789Z,102104.65
2023-02-09T13:50:34.306Z,102100.17
2023-02-09T13:52:40.569Z,102096.15
2023-02-09T13:54:45.961Z,102095.69
2023-02-09T13:56:52.486Z,102087.98
2023-02-09T13:58:58.713Z,102090.91
2023-02-09T14:01:04.784Z,102087.23
2023-02-09T14:03:10.567Z,102088.47
2023-02-09T14:05:16.472Z,102087.49
2023-02-09T14:07:22.087Z,102081.06
2023-02-09T14:09:28.237Z,102078.89
2023-02-09T14:11:43.589Z,102083.02
2023-02-09T14:13:48.961Z,102081.25
2023-02-09T14:15:54.504Z,102083.92
2023-02-09T14:17:59.843Z,102080.44
2023-02-09T14:20:05.212Z,102077.58
2023-02-09T14:22:10.716Z,102078.94
2023-02-09T14:24:16.037Z,102075.73
2023-02-09T14:26:21.398Z,102070.82
2023-02-09T14:28:27.127Z,102067.48
2023-02-09T14:30:32.905Z,102071.96
2023-02-09T14:32:38.230Z,102067.25
2023-02-09T14:34:45.905Z,102063.28
2023-02-09T14:36:51.553Z,102059.75
2023-02-09T14:38:56.957Z,102068.48
2023-02-09T14:41:02.376Z,102058.98
2023-02-09T14:43:07.556Z,102054.41
2023-02-09T14:45:13.359Z,102053.38
2023-02-09T14:47:18.752Z,102047.56
2023-02-09T14:49:24.725Z,102046.8
2023-02-09T14:51:30.149Z,102046.3
2023-02-09T14:53:35.398Z,102049.11
2023-02-09T14:55:41.752Z,102042.02
2023-02-09T14:57:48.013Z,102040.5
2023-02-09T14:59:53.437Z,102034.84
2023-02-09T15:01:58.991Z,102035.88
2023-02-09T15:04:04.854Z,102035.25
2023-02-09T15:06:10.488Z,102035.63
2023-02-09T15:08:15.801Z,102033.77
2023-02-09T15:10:35.838Z,102031.28
2023-02-09T15:12:44.443Z,102036.66
2023-02-09T15:14:50.234Z,102037.05
2023-02-09T15:16:56.134Z,102032.86
2023-02-09T15:19:01.578Z,102032.7
2023-02-09T15:21:07.149Z,102030.45
2023-02-09T15:23:13.245Z,102032.95
2023-02-09T15:25:19.625Z,102036.25
2023-02-09T15:27:25.034Z,102035.14
2023-02-09T15:29:35.165Z,102039.84
2023-02-09T15:31:40.898Z,102043.85
2023-02-09T15:33:46.540Z,102045.66
2023-02-09T15:35:52.382Z,102048.64
2023-02-09T15:37:58.316Z,102051.64
2023-02-09T15:40:04.279Z,102042.02
2023-02-09T15:42:10.007Z,102038.73
2023-02-09T15:44:16.267Z,102035.93
2023-02-09T15:46:22.256Z,102037.96
2023-02-09T15:48:28.618Z,102040.03
2023-02-09T15:50:34.163Z,102041.98
2023-02-09T15:52:39.937Z,102040.69
2023-02-09T15:54:45.992Z,102034.86
2023-02-09T15:56:54.422Z,102031.47
2023-02-09T15:59:01.818Z,102026.72
2023-02-09T16:01:09.377Z,102022.31
2023-02-09T16:03:16.845Z,102017
2023-02-09T16:05:22.607Z,102015.69
2023-02-09T16:07:28.397Z,102010.27
2023-02-09T16:09:34.695Z,102012.12
2023-02-09T16:11:41.905Z,102015.83
2023-02-09T16:13:49.072Z,102011.81
2023-02-09T16:16:16.138Z,102008.63
2023-02-09T16:18:37.877Z,102010.13
2023-02-09T16:20:45.216Z,102010.82
2023-02-09T16:22:53.150Z,102004.17
2023-02-09T16:24:59.334Z,102001.42
2023-02-09T16:27:06.543Z,101998.53
2023-02-09T16:29:12.882Z,101997.33
2023-02-09T16:31:22.907Z,102000.67
2023-02-09T16:33:30.713Z,101999.32
2023-02-09T16:35:37.724Z,102000.53
2023-02-09T16:37:47.820Z,101999.7
2023-02-09T16:39:53.893Z,101997.75
2023-02-09T16:41:59.805Z,101996.13
2023-02-09T16:44:11.027Z,101992.89
2023-02-09T16:46:19.900Z,101989.13
2023-02-09T16:48:27.103Z,101987.91
2023-02-09T16:50:34.382Z,101983.13
2023-02-09T16:52:42.577Z,101984.36
2023-02-09T16:54:51.519Z,101987.7
2023-02-09T16:57:03.502Z,101981.86
2023-02-09T16:59:10.117Z,101989.31
2023-02-09T17:01:20.372Z,101978.53
2023-02-09T17:03:27.799Z,101973.18
2023-02-09T17:05:35.698Z,101969.76
2023-02-09T17:07:56.266Z,101970.74
2023-02-09T17:10:02.961Z,101972.25
2023-02-09T17:12:09.699Z,101972.19
2023-02-09T17:14:15.213Z,101976.05
2023-02-09T17:16:22.324Z,101974.38
2023-02-09T17:18:30.905Z,101970.28
2023-02-09T17:20:37.522Z,101972.22
2023-02-09T17:22:45.086Z,101973.2
2023-02-09T17:24:53.578Z,101974.13
2023-02-09T17:27:00.654Z,101970.66
2023-02-09T17:29:08.808Z,101969.72
2023-02-09T17:31:16.817Z,101971.65
2023-02-09T17:33:24.454Z,101969.69
2023-02-09T17:36:28.576Z,101969.08
2023-02-09T17:38:38.372Z,101965.83
2023-02-09T17:40:44.865Z,101967.41
2023-02-09T17:42:52.542Z,101964.09
2023-02-09T17:45:00.856Z,101962.98
2023-02-09T17:47:11.907Z,101964.7
2023-02-09T17:49:19.719Z,101962.94
2023-02-09T17:51:27.968Z,101957.41
2023-02-09T17:53:35.145Z,101958.06
2023-02-09T17:55:42.894Z,101957.18
2023-02-09T17:57:51.385Z,101951.29
2023-02-09T17:59:57.523Z,101949.57
2023-02-09T18:02:05.284Z,101948.13
2023-02-09T18:04:12.842Z,101943.91
2023-02-09T18:06:20.132Z,101941.08
2023-02-09T18:08:28.137Z,101935.06
2023-02-09T18:10:35.390Z,101929.63
2023-02-09T18:12:44.925Z,101924.52
2023-02-09T18:14:52.873Z,101919.66
2023-02-09T18:17:01.790Z,101920.41
2023-02-09T18:19:10.218Z,101921.76
2023-02-09T18:21:17.660Z,101919.34
2023-02-09T18:23:27.789Z,101921.13
2023-02-09T18:25:36.430Z,101919.73
2023-02-09T18:27:46.288Z,101915.56
2023-02-09T18:29:53.808Z,101912.48
2023-02-09T18:32:03.092Z,101910.65
2023-02-09T18:34:18.713Z,101908.71
2023-02-09T18:36:26.121Z,101908.55
2023-02-09T18:38:35.998Z,101903.88
2023-02-09T18:40:45.370Z,101903.92
2023-02-09T18:42:54.589Z,101903.69
2023-02-09T18:45:14.040Z,101900.33
2023-02-09T18:47:21.941Z,101903.11
2023-02-09T18:49:44.177Z,101901.5
2023-02-09T18:51:53.517Z,101901.14
2023-02-09T18:54:02.230Z,101897.13
2023-02-09T18:56:11.204Z,101897.27
2023-02-09T18:58:19.494Z,101888.98
2023-02-09T19:00:28.232Z,101884.81
2023-02-09T19:02:38.235Z,101882.64
2023-02-09T19:04:47.363Z,101878.3
2023-02-09T19:06:58.980Z,101878.73
2023-02-09T19:09:07.437Z,101873.95
2023-02-09T19:11:16.300Z,101874.63
2023-02-09T19:13:24.190Z,101869.51
2023-02-09T19:15:33.193Z,101866.97
2023-02-09T19:17:41.767Z,101862.81
2023-02-09T19:19:52.245Z,101856.6
2023-02-09T19:22:03.704Z,101854.91
2023-02-09T19:24:14.591Z,101852.83
2023-02-09T19:26:25.491Z,101855.41
2023-02-09T19:28:38.436Z,101852.53
2023-02-09T19:30:47.224Z,101848.52
2023-02-09T19:33:05.052Z,101850.63
2023-02-09T19:35:19.021Z,101849.11
2023-02-09T19:37:32.943Z,101851.58
2023-02-09T19:39:47.084Z,101851.41
2023-02-09T19:42:01.677Z,101853.5
2023-02-09T19:44:15.335Z,101856.88
2023-02-09T19:46:26.507Z,101851.98
2023-02-09T19:48:38.023Z,101852.26
2023-02-09T19:50:47.735Z,101847.66
2023-02-09T19:52:55.845Z,101848.61
2023-02-09T19:55:04.319Z,101846.03
2023-02-09T19:57:12.059Z,101855.36
2023-02-09T19:59:23.266Z,101851.5
2023-02-09T20:01:32.834Z,101840.65
2023-02-09T20:03:43.247Z,101831.99
2023-02-09T20:05:51.629Z,101824.79
2023-02-09T20:07:59.760Z,101826.79
2023-02-09T20:10:09.417Z,101825.23
2023-02-09T20:12:18.266Z,101827.49
2023-02-09T20:14:33.830Z,101827.63
2023-02-09T20:16:44.009Z,101820.53
2023-02-09T20:18:52.610Z,101814.53
2023-02-09T20:21:02.848Z,101808.58
2023-02-09T20:23:18.839Z,101808.34
2023-02-09T20:25:27.020Z,101799.92
2023-02-09T20:27:38.987Z,101801.64
2023-02-09T20:29:49.165Z,101803.09
2023-02-09T20:31:56.826Z,101804.33
2023-02-09T20:34:11.348Z,101806.74
2023-02-09T20:36:19.387Z,101807.52
2023-02-09T20:38:31.153Z,101808.5
2023-02-09T20:40:42.259Z,101807.75
2023-02-09T20:43:02.856Z,101799.48
2023-02-09T20:45:10.959Z,101802.5
2023-02-09T20:47:19.894Z,101804.97
2023-02-09T20:49:34.481Z,101802.84
2023-02-09T20:51:43.969Z,101802.72
2023-02-09T20:53:54.406Z,101794.97
2023-02-09T20:56:02.923Z,101801.98
2023-02-09T20:58:14.017Z,101809.88
2023-02-09T21:00:21.055Z,101811.66
2023-02-09T21:02:30.004Z,101802.45
2023-02-09T21:04:41.778Z,101806.16
2023-02-09T21:06:51.736Z,101800.91
2023-02-09T21:09:02.920Z,101802.22
2023-02-09T21:11:11.519Z,101803.77
2023-02-09T21:13:20.833Z,101811.52
2023-02-09T21:15:28.172Z,101814.23
2023-02-09T21:17:35.434Z,101809.8
2023-02-09T21:19:42.966Z,101820.95
2023-02-09T21:21:49.847Z,101818.44
2023-02-09T21:23:57.044Z,101814.52
2023-02-09T21:26:04.252Z,101820.07
2023-02-09T21:28:11.300Z,101825.73
2023-02-09T21:30:17.832Z,101822.18
2023-02-09T21:32:24.635Z,101823.58
2023-02-09T21:34:30.834Z,101824.19
2023-02-09T21:36:38.907Z,101821.49
2023-02-09T21:38:45.065Z,101816.31
2023-02-09T21:40:52.088Z,101813.22
2023-02-09T21:42:59.763Z,101807.28
2023-02-09T21:45:06.705Z,101804.58
2023-02-09T21:47:14.010Z,101806.03
2023-02-09T21:49:23.092Z,101803.36
2023-02-09T21:51:28.473Z,101798.66
2023-02-09T21:53:33.951Z,101796.64
2023-02-09T21:55:40.372Z,101788.33
2023-02-09T21:57:45.906Z,101791.92
2023-02-09T21:59:51.791Z,101781.31
2023-02-09T22:01:57.459Z,101791.88
2023-02-09T22:04:03.008Z,101792.98
2023-02-09T22:06:08.688Z,101791.22
2023-02-09T22:08:14.070Z,101778.34
2023-02-09T22:10:20.021Z,101777.28
2023-02-09T22:12:25.556Z,101775.17
2023-02-09T22:14:31.406Z,101778.45
2023-02-09T22:16:36.871Z,101783.05
2023-02-09T22:18:42.606Z,101790.38
2023-02-09T22:20:48.956Z,101805.28
2023-02-09T22:22:54.557Z,101795.7
2023-02-09T22:25:00.355Z,101793.78
2023-02-09T22:27:05.593Z,101798.04
2023-02-09T22:29:13.884Z,101792.11
2023-02-09T22:31:19.825Z,101793.53
2023-02-09T22:33:25.745Z,101794
2023-02-09T22:35:31.244Z,101798.66
2023-02-09T22:37:36.374Z,101806.23
2023-02-09T22:39:41.625Z,101805.38
2023-02-09T22:41:46.879Z,101801.23
2023-02-09T22:43:52.274Z,101794.91
2023-02-09T22:45:57.564Z,101792.51
2023-02-09T22:48:02.919Z,101785.86
2023-02-09T22:50:08.298Z,101779
2023-02-09T22:52:13.533Z,101776.69
2023-02-09T22:54:18.835Z,101775.91
2023-02-09T22:56:24.496Z,101780.58
2023-02-09T22:58:29.914Z,101771.19
2023-02-09T23:00:35.879Z,101771.48
2023-02-09T23:02:41.411Z,101766.75
2023-02-09T23:04:47.249Z,101759.23
2023-02-09T23:06:52.676Z,101757.4
2023-02-09T23:08:58.356Z,101754.16
2023-02-09T23:11:04.333Z,101757.52
2023-02-09T23:13:10.129Z,101755.39
2023-02-09T23:15:15.431Z,101759.19
2023-02-09T23:17:21.359Z,101758.79
2023-02-09T23:19:26.950Z,101764.05
2023-02-09T23:21:32.455Z,101757.84
2023-02-09T23:23:37.760Z,101746.72
2023-02-09T23:25:43.130Z,101754.58
2023-02-09T23:27:48.870Z,101757.34
2023-02-09T23:29:54.211Z,101764.12
2023-02-09T23:32:00.471Z,101771.11
2023-02-09T23:34:05.973Z,101764.07
2023-02-09T23:36:11.410Z,101770.67
2023-02-09T23:38:16.913Z,101763.2
2023-02-09T23:40:22.268Z,101757.43
2023-02-09T23:42:27.929Z,101754.19
2023-02-09T23:44:33.132Z,101762.39
2023-02-09T23:46:38.743Z,101755.45
2023-02-09T23:48:44.128Z,101750.91
2023-02-09T23:50:49.698Z,101751.05
2023-02-09T23:52:55.034Z,101750.53
2023-02-09T23:55:03.729Z,101753.14
2023-02-09T23:57:09.076Z,101747.32
2023-02-09T23:59:14.311Z,101744.3
